Time;durP1;ratioP1;P1;durP2;ratioP2;P2;SDS_P1;SDS_P2;PMS_P1;PMS_P2;Temp;Humidity;BMP_temperature;BMP_pressure;BME280_temperature;BME280_humidity;BME280_pressure;Samples;Min_cycle;Max_cycle;Signal;HPM_P1;HPM_P2
2021/04/19 00:00:31;;;;;;;40.40;26.15;;;6.30;97.60;;;;;;5010511;28;20029;-75
2021/04/19 00:02:56;;;;;;;43.75;27.83;;;6.10;98.30;;;;;;5011808;28;20030;-75
2021/04/19 00:05:22;;;;;;;43.28;27.10;;;6.00;99.40;;;;;;5011709;28;20028;-75
2021/04/19 00:07:48;;;;;;;43.65;25.70;;;5.90;99.90;;;;;;5010240;28;20022;-75
2021/04/19 00:10:17;;;;;;;41.00;25.88;;;6.00;99.90;;;;;;5013115;28;20022;-75
2021/04/19 00:12:43;;;;;;;42.33;26.85;;;6.10;99.90;;;;;;5015315;28;20026;-75
2021/04/19 00:15:10;;;;;;;41.95;27.58;;;6.30;99.90;;;;;;5015321;28;20387;-75
2021/04/19 00:17:36;;;;;;;45.08;27.85;;;6.20;99.90;;;;;;5015291;28;20026;-75
2021/04/19 00:20:05;;;;;;;46.30;28.67;;;6.20;99.90;;;;;;5014014;28;20497;-75
2021/04/19 00:22:32;;;;;;;38.85;24.75;;;6.00;99.90;;;;;;5014053;28;20152;-75
2021/04/19 00:24:58;;;;;;;46.30;29.13;;;5.80;99.90;;;;;;5015208;28;20022;-75
2021/04/19 00:27:23;;;;;;;43.88;28.00;;;5.70;99.90;;;;;;5014803;28;20028;-75
2021/04/19 00:29:49;;;;;;;48.65;28.42;;;5.60;99.90;;;;;;5013929;28;20037;-77
2021/04/19 00:32:15;;;;;;;45.47;27.30;;;5.70;99.90;;;;;;5015109;28;20037;-75
2021/04/19 00:34:41;;;;;;;45.22;28.20;;;5.80;99.90;;;;;;5014946;28;20026;-75
2021/04/19 00:37:06;;;;;;;54.80;29.38;;;5.80;99.90;;;;;;5014869;28;20416;-75
2021/04/19 00:39:32;;;;;;;51.70;29.70;;;5.80;99.90;;;;;;4997241;28;20026;-75
2021/04/19 00:41:58;;;;;;;45.30;28.73;;;5.90;99.90;;;;;;5014867;28;20033;-75
2021/04/19 00:44:24;;;;;;;48.63;29.30;;;5.80;99.90;;;;;;5014868;28;20030;-75
2021/04/19 00:46:50;;;;;;;48.95;27.88;;;5.60;99.90;;;;;;5014650;28;20385;-74
2021/04/19 00:49:17;;;;;;;44.55;28.45;;;5.70;99.90;;;;;;5014861;28;20057;-75
2021/04/19 00:51:43;;;;;;;45.25;29.20;;;5.90;99.90;;;;;;5013386;28;20064;-75
2021/04/19 00:54:11;;;;;;;47.92;30.02;;;5.90;99.90;;;;;;5014591;28;20053;-75
2021/04/19 00:56:37;;;;;;;46.40;28.92;;;5.80;99.90;;;;;;5014492;28;20100;-75
2021/04/19 00:59:03;;;;;;;47.40;28.17;;;5.90;99.90;;;;;;5013357;28;20080;-75
2021/04/19 01:01:32;;;;;;;50.22;29.55;;;5.90;99.90;;;;;;4996922;28;20030;-75
2021/04/19 01:03:58;;;;;;;47.88;29.17;;;5.80;99.90;;;;;;5013123;28;20029;-74
2021/04/19 01:06:24;;;;;;;49.25;30.60;;;5.70;99.90;;;;;;5014225;28;20101;-75
2021/04/19 01:08:50;;;;;;;49.17;30.92;;;5.70;99.90;;;;;;5013048;28;20105;-74
2021/04/19 01:11:16;;;;;;;49.75;30.42;;;5.60;99.90;;;;;;5014363;28;20073;-74
2021/04/19 01:13:41;;;;;;;51.88;30.90;;;5.40;99.90;;;;;;5014296;28;20489;-75
2021/04/19 01:16:07;;;;;;;47.20;28.25;;;5.40;99.90;;;;;;5012897;28;20022;-77
2021/04/19 01:18:33;;;;;;;47.17;29.25;;;5.40;99.90;;;;;;5014192;28;20515;-75
2021/04/19 01:20:59;;;;;;;47.35;28.60;;;5.40;99.90;;;;;;5014032;28;20049;-75
2021/04/19 01:23:25;;;;;;;48.42;29.33;;;5.50;99.90;;;;;;5012768;28;20116;-75
2021/04/19 01:25:51;;;;;;;50.80;30.02;;;5.60;99.90;;;;;;5013956;28;20026;-74
2021/04/19 01:28:18;;;;;;;49.80;29.95;;;5.60;99.90;;;;;;4996334;28;20025;-75
2021/04/19 01:30:47;;;;;;;49.03;29.02;;;5.80;99.90;;;;;;5013996;28;20237;-75
2021/04/19 01:33:13;;;;;;;45.38;29.35;;;5.90;99.90;;;;;;5013958;28;20065;-75
2021/04/19 01:35:41;;;;;;;56.33;28.98;;;6.00;99.90;;;;;;5012214;28;20144;-75
2021/04/19 01:38:11;;;;;;;48.58;29.52;;;6.10;99.90;;;;;;5013807;28;20033;-75
2021/04/19 01:40:37;;;;;;;48.50;29.98;;;6.10;99.90;;;;;;5013695;28;20029;-74
2021/04/19 01:43:04;;;;;;;54.92;29.55;;;6.10;99.90;;;;;;5012667;28;20505;-75
2021/04/19 01:45:30;;;;;;;51.17;29.77;;;6.20;99.90;;;;;;5013692;28;20525;-75
2021/04/19 01:47:57;;;;;;;47.15;29.13;;;6.20;99.90;;;;;;5013513;28;20367;-75
2021/04/19 01:50:25;;;;;;;46.05;28.30;;;6.20;99.90;;;;;;5013351;28;20265;-75
2021/04/19 01:52:52;;;;;;;47.75;29.92;;;6.20;99.90;;;;;;5012351;28;20022;-75
2021/04/19 01:55:24;;;;;;;52.33;29.85;;;6.30;99.90;;;;;;5013465;28;20100;-75
2021/04/19 01:58:12;;;;;;;45.53;28.52;;;6.40;99.90;;;;;;5013438;28;20033;-75
2021/04/19 02:00:41;;;;;;;55.22;29.73;;;6.40;99.90;;;;;;5012827;28;20062;-75
2021/04/19 02:03:07;;;;;;;56.15;30.55;;;6.20;99.90;;;;;;5012118;28;20022;-75
2021/04/19 02:05:41;;;;;;;49.55;28.92;;;6.10;99.90;;;;;;5013288;28;20359;-75
2021/04/19 02:08:31;;;;;;;53.40;29.33;;;6.00;99.90;;;;;;5013312;28;20053;-75
2021/04/19 02:11:27;;;;;;;52.30;30.42;;;6.00;99.90;;;;;;5013193;28;20363;-75
2021/04/19 02:14:06;;;;;;;49.30;30.65;;;5.90;99.90;;;;;;5013190;28;20393;-75
2021/04/19 02:16:46;;;;;;;50.15;30.25;;;5.80;99.90;;;;;;5013402;28;20129;-76
2021/04/19 02:19:17;;;;;;;47.90;29.98;;;5.60;99.90;;;;;;5012949;28;20056;-77
2021/04/19 02:21:57;;;;;;;50.58;32.45;;;5.70;99.90;;;;;;5011818;28;20497;-75
2021/04/19 02:24:25;;;;;;;52.05;31.60;;;5.60;99.90;;;;;;5012957;28;20029;-77
2021/04/19 02:26:56;;;;;;;54.35;31.58;;;5.70;99.90;;;;;;5012802;28;20040;-76
2021/04/19 02:29:33;;;;;;;47.30;30.17;;;5.70;99.90;;;;;;5012879;28;20483;-75
2021/04/19 02:32:05;;;;;;;48.38;30.20;;;5.60;99.90;;;;;;5012772;28;20539;-75
2021/04/19 02:34:33;;;;;;;49.72;29.70;;;5.60;99.90;;;;;;5012842;28;20389;-75
2021/04/19 02:37:02;;;;;;;49.05;30.02;;;5.60;99.90;;;;;;5012690;28;20033;-75
2021/04/19 02:39:31;;;;;;;55.70;32.28;;;5.60;99.90;;;;;;5012684;28;20033;-75
2021/04/19 02:41:59;;;;;;;51.85;29.90;;;5.60;99.90;;;;;;5012716;28;20417;-77
2021/04/19 02:44:26;;;;;;;52.13;32.35;;;5.60;99.90;;;;;;5012585;28;20029;-75
2021/04/19 02:46:54;;;;;;;51.35;31.17;;;5.60;99.90;;;;;;5012485;28;20026;-75
2021/04/19 02:49:22;;;;;;;47.47;30.52;;;5.50;99.90;;;;;;5012547;28;20084;-75
2021/04/19 02:51:51;;;;;;;49.17;29.13;;;5.50;99.90;;;;;;5011275;28;20029;-75
2021/04/19 02:54:21;;;;;;;53.05;31.70;;;5.60;99.90;;;;;;5011285;28;20520;-74
2021/04/19 02:56:48;;;;;;;48.65;30.42;;;5.40;99.90;;;;;;5012355;28;20036;-74
2021/04/19 02:59:16;;;;;;;52.30;32.20;;;5.20;99.90;;;;;;5012373;28;20104;-75
2021/04/19 03:01:45;;;;;;;53.15;30.92;;;5.30;99.90;;;;;;5011249;28;20481;-75
2021/04/19 03:04:16;;;;;;;50.60;31.98;;;5.20;99.90;;;;;;5012368;28;20018;-75
2021/04/19 03:06:49;;;;;;;52.80;33.17;;;5.20;99.90;;;;;;5012134;28;20030;-74
2021/04/19 03:09:16;;;;;;;55.55;31.38;;;5.20;99.90;;;;;;5012328;28;20033;-75
2021/04/19 03:11:55;;;;;;;54.42;30.77;;;5.20;99.90;;;;;;5012289;28;20026;-75
2021/04/19 03:14:26;;;;;;;66.82;33.53;;;5.20;99.90;;;;;;5010976;28;20022;-77
2021/04/19 03:17:01;;;;;;;52.80;33.00;;;5.30;99.90;;;;;;5011998;28;20076;-74
2021/04/19 03:19:28;;;;;;;59.58;31.23;;;5.30;99.90;;;;;;5012200;28;20038;-75
2021/04/19 03:21:56;;;;;;;49.33;30.15;;;5.50;99.90;;;;;;5010955;28;20022;-75
2021/04/19 03:24:22;;;;;;;53.88;31.17;;;5.50;99.90;;;;;;5010859;28;20022;-75
2021/04/19 03:26:49;;;;;;;55.97;31.83;;;5.40;99.90;;;;;;5012224;28;20030;-74
2021/04/19 03:29:16;;;;;;;51.15;30.67;;;5.50;99.90;;;;;;5012133;28;20030;-74
2021/04/19 03:31:46;;;;;;;53.05;31.55;;;5.30;99.90;;;;;;5010691;28;20033;-74
2021/04/19 03:34:16;;;;;;;51.00;30.27;;;5.40;99.90;;;;;;5010819;28;20021;-75
2021/04/19 03:36:45;;;;;;;49.10;31.10;;;5.30;99.90;;;;;;4994291;28;20123;-75
2021/04/19 03:39:12;;;;;;;52.35;31.23;;;5.20;99.90;;;;;;5012790;28;20026;-75
2021/04/19 03:41:41;;;;;;;51.72;31.55;;;5.10;99.90;;;;;;5010649;28;20389;-74
2021/04/19 03:44:11;;;;;;;53.90;32.20;;;5.10;99.90;;;;;;5013475;28;20014;-74
2021/04/19 03:46:39;;;;;;;53.83;32.85;;;5.30;99.90;;;;;;5014555;28;20022;-74
2021/04/19 03:49:15;;;;;;;62.80;33.88;;;5.30;99.90;;;;;;5014690;28;20060;-75
2021/04/19 03:51:43;;;;;;;52.97;31.42;;;5.30;99.90;;;;;;5015760;28;20506;-75
2021/04/19 03:54:10;;;;;;;54.13;30.00;;;5.30;99.90;;;;;;5014485;28;20025;-75
2021/04/19 03:56:39;;;;;;;52.75;31.60;;;5.50;99.90;;;;;;5015578;28;20021;-75
2021/04/19 03:59:13;;;;;;;52.15;29.35;;;5.60;99.90;;;;;;5015630;28;20025;-75
2021/04/19 04:01:40;;;;;;;60.05;32.78;;;5.50;99.90;;;;;;5015603;28;20104;-75
2021/04/19 04:04:07;;;;;;;55.55;31.80;;;5.60;99.90;;;;;;5015690;28;20052;-77
2021/04/19 04:06:35;;;;;;;52.05;31.30;;;5.30;99.90;;;;;;4997633;28;20026;-75
2021/04/19 04:09:01;;;;;;;58.97;31.98;;;5.20;99.90;;;;;;5015432;28;20030;-75
2021/04/19 04:11:27;;;;;;;54.90;32.50;;;5.30;99.90;;;;;;5014054;28;20533;-74
2021/04/19 04:13:53;;;;;;;52.35;31.90;;;5.30;99.90;;;;;;5014079;28;20026;-75
2021/04/19 04:16:19;;;;;;;56.05;31.27;;;5.50;99.90;;;;;;5013844;28;20037;-75
2021/04/19 04:18:45;;;;;;;48.45;31.08;;;5.40;99.90;;;;;;5015328;28;20048;-75
2021/04/19 04:21:11;;;;;;;53.95;31.25;;;5.50;99.90;;;;;;5013905;28;20049;-75
2021/04/19 04:23:37;;;;;;;50.30;31.67;;;5.50;99.90;;;;;;5013912;28;20026;-75
2021/04/19 04:26:04;;;;;;;49.97;30.75;;;5.50;99.90;;;;;;5013898;28;20026;-74
2021/04/19 04:28:30;;;;;;;58.20;31.45;;;5.50;99.90;;;;;;5013936;28;20034;-75
2021/04/19 04:30:56;;;;;;;51.00;30.90;;;5.40;99.90;;;;;;5013779;28;20034;-75
2021/04/19 04:33:22;;;;;;;49.55;31.10;;;5.40;99.90;;;;;;5015039;28;20112;-75
2021/04/19 04:35:48;;;;;;;57.83;32.55;;;5.50;99.90;;;;;;5014637;28;20061;-75
2021/04/19 04:38:13;;;;;;;60.22;32.67;;;5.50;99.90;;;;;;5013543;28;20030;-75
2021/04/19 04:40:39;;;;;;;57.38;33.97;;;5.60;99.90;;;;;;5014821;28;20512;-74
2021/04/19 04:43:14;;;;;;;60.55;32.03;;;5.60;99.90;;;;;;5013483;28;20021;-75
2021/04/19 04:45:41;;;;;;;57.10;31.77;;;5.70;99.90;;;;;;5014612;28;20018;-75
2021/04/19 04:48:18;;;;;;;61.92;31.55;;;5.70;99.90;;;;;;5014912;28;20018;-76
2021/04/19 04:50:53;;;;;;;68.75;31.40;;;5.70;99.90;;;;;;5014826;28;20025;-75
2021/04/19 04:53:25;;;;;;;58.08;31.02;;;5.80;99.90;;;;;;5014665;28;20026;-76
2021/04/19 04:55:52;;;;;;;;;;;5.80;99.90;;;;;;5014562;28;20101;-75
2021/04/19 04:58:19;;;;;;;51.40;30.25;;;5.80;99.90;;;;;;5014505;28;19906;-75
2021/04/19 05:00:45;;;;;;;51.42;29.63;;;5.80;99.90;;;;;;5013378;28;20026;-76
2021/04/19 05:03:14;;;;;;;54.88;30.48;;;5.80;99.90;;;;;;5014469;28;20385;-75
2021/04/19 05:05:41;;;;;;;52.40;31.50;;;5.80;99.90;;;;;;5014274;28;20018;-75
2021/04/19 05:08:11;;;;;;;50.88;31.88;;;5.70;99.90;;;;;;5014321;28;20045;-75
2021/04/19 05:10:38;;;;;;;54.38;33.10;;;5.70;99.90;;;;;;5014208;28;20034;-75
2021/04/19 05:13:13;;;;;;;49.90;31.00;;;5.60;99.90;;;;;;5014288;28;20032;-75
2021/04/19 05:15:43;;;;;;;47.90;30.88;;;5.50;99.90;;;;;;5014093;28;20026;-75
2021/04/19 05:18:14;;;;;;;51.85;32.70;;;5.50;99.90;;;;;;5014160;28;20029;-75
2021/04/19 05:20:40;;;;;;;52.22;32.53;;;5.50;99.90;;;;;;5012688;28;20100;-75
2021/04/19 05:23:06;;;;;;;50.97;30.50;;;5.60;99.90;;;;;;5013971;28;20029;-75
2021/04/19 05:25:32;;;;;;;47.67;31.00;;;5.60;99.90;;;;;;5016133;28;20017;-75
2021/04/19 05:27:59;;;;;;;53.70;32.70;;;5.70;99.90;;;;;;5033559;28;20374;-75
2021/04/19 05:30:27;;;;;;;52.03;33.78;;;5.60;99.90;;;;;;5033724;28;20033;-75
2021/04/19 05:32:53;;;;;;;48.80;31.63;;;5.50;99.90;;;;;;5032365;28;20108;-75
2021/04/19 05:35:20;;;;;;;50.33;30.67;;;5.60;99.90;;;;;;5032322;28;20121;-75
2021/04/19 05:37:48;;;;;;;49.65;31.63;;;5.50;99.90;;;;;;5031904;28;20025;-75
2021/04/19 05:40:15;;;;;;;56.75;34.30;;;5.40;99.90;;;;;;5031880;28;20113;-75
2021/04/19 05:42:41;;;;;;;61.13;34.38;;;5.50;99.90;;;;;;5040347;22;20038;-73
2021/04/19 05:45:08;;;;;;;58.72;36.30;;;5.60;99.90;;;;;;5012148;28;20033;-74
2021/04/19 05:47:34;;;;;;;49.72;31.35;;;5.60;99.90;;;;;;4987703;28;20060;-74
2021/04/19 05:49:59;;;;;;;49.85;31.30;;;5.60;99.90;;;;;;5009723;28;20057;-74
2021/04/19 05:52:26;;;;;;;55.15;34.28;;;5.70;99.90;;;;;;4993866;28;20081;-73
2021/04/19 05:54:52;;;;;;;59.92;34.95;;;5.70;99.90;;;;;;4995772;28;20371;-73
2021/04/19 05:57:27;;;;;;;58.05;36.08;;;5.60;99.90;;;;;;5011990;28;20120;-74
2021/04/19 05:59:55;;;;;;;58.30;35.40;;;5.70;99.90;;;;;;5012034;28;20041;-73
2021/04/19 06:02:49;;;;;;;51.80;31.67;;;5.70;99.90;;;;;;5013184;28;20474;-74
2021/04/19 06:05:36;;;;;;;56.88;32.63;;;5.70;99.90;;;;;;4976731;28;20029;-74
2021/04/19 06:08:13;;;;;;;59.13;35.42;;;5.70;99.90;;;;;;4992951;28;20450;-73
2021/04/19 06:11:04;;;;;;;53.75;32.50;;;5.70;99.90;;;;;;4992488;28;20099;-73
2021/04/19 06:13:31;;;;;;;53.65;33.80;;;5.60;99.90;;;;;;5038680;28;20025;-74
2021/04/19 06:16:00;;;;;;;56.42;35.03;;;5.60;99.90;;;;;;5011415;28;20104;-73
2021/04/19 06:18:28;;;;;;;54.95;33.63;;;5.80;99.90;;;;;;5028085;28;20392;-73
2021/04/19 06:21:00;;;;;;;58.20;33.65;;;5.80;99.90;;;;;;5005734;28;20382;-73
2021/04/19 06:23:26;;;;;;;49.88;29.98;;;5.70;99.90;;;;;;4975830;28;20022;-73
2021/04/19 06:25:52;;;;;;;51.30;32.10;;;5.70;99.90;;;;;;4993144;28;20024;-74
2021/04/19 06:28:18;;;;;;;51.10;32.45;;;5.60;99.90;;;;;;4993134;28;20470;-73
2021/04/19 06:30:47;;;;;;;52.25;32.58;;;5.60;99.90;;;;;;4991929;28;20026;-73
2021/04/19 06:33:17;;;;;;;49.03;31.65;;;5.60;99.90;;;;;;5001280;28;20389;-73
2021/04/19 06:35:44;;;;;;;50.00;30.45;;;5.60;99.90;;;;;;5013494;28;20101;-74
2021/04/19 06:38:10;;;;;;;53.50;32.15;;;5.70;99.90;;;;;;5012670;28;20034;-73
2021/04/19 06:40:38;;;;;;;48.08;31.15;;;5.90;99.90;;;;;;5010803;28;20037;-73
2021/04/19 06:43:04;;;;;;;92.05;34.58;;;5.90;99.90;;;;;;5012459;28;20080;-73
2021/04/19 06:45:32;;;;;;;49.97;30.17;;;6.00;99.90;;;;;;5011196;28;20125;-73
2021/04/19 06:48:01;;;;;;;57.58;30.73;;;6.00;99.90;;;;;;5011778;28;20381;-73
2021/04/19 06:50:26;;;;;;;57.97;31.75;;;6.00;99.90;;;;;;5011324;28;20096;-73
2021/04/19 06:52:52;;;;;;;60.00;32.20;;;5.90;99.90;;;;;;5010329;28;20030;-73
2021/04/19 06:55:20;;;;;;;119.63;35.67;;;5.90;99.90;;;;;;5012210;28;20048;-73
2021/04/19 06:57:53;;;;;;;53.05;31.45;;;6.00;99.90;;;;;;5010759;28;20030;-73
2021/04/19 07:00:21;;;;;;;73.10;32.83;;;6.20;99.90;;;;;;5010205;28;20022;-73
2021/04/19 07:02:51;;;;;;;75.03;31.67;;;6.30;99.90;;;;;;5011386;28;20018;-73
2021/04/19 07:05:22;;;;;;;67.22;31.08;;;6.50;99.90;;;;;;5010951;28;20033;-73
2021/04/19 07:08:24;;;;;;;42.70;23.73;;;6.50;99.90;;;;;;4993520;28;20037;-73
2021/04/19 07:10:58;;;;;;;58.08;29.67;;;6.60;99.90;;;;;;5009952;28;20037;-73
2021/04/19 07:13:26;;;;;;;52.25;29.00;;;6.70;99.90;;;;;;5011167;28;20029;-73
2021/04/19 07:15:52;;;;;;;54.00;27.52;;;6.80;99.90;;;;;;5010732;28;20033;-73
2021/04/19 07:18:18;;;;;;;52.92;27.27;;;6.70;99.90;;;;;;5009600;28;20030;-74
2021/04/19 07:20:45;;;;;;;49.88;28.58;;;6.60;99.90;;;;;;5011034;28;20108;-73
2021/04/19 07:23:11;;;;;;;56.17;28.92;;;6.60;99.90;;;;;;5010002;28;20152;-74
2021/04/19 07:25:37;;;;;;;62.70;26.58;;;6.70;99.90;;;;;;5010847;28;20026;-73
2021/04/19 07:28:06;;;;;;;57.58;25.75;;;6.80;99.90;;;;;;5010595;28;20018;-73
2021/04/19 07:30:33;;;;;;;45.75;26.85;;;6.70;99.90;;;;;;5009909;28;20051;-73
2021/04/19 07:33:00;;;;;;;70.75;28.50;;;6.60;99.90;;;;;;5010621;28;20022;-73
2021/04/19 07:35:31;;;;;;;86.13;28.70;;;6.70;99.90;;;;;;5010075;28;20026;-73
2021/04/19 07:38:03;;;;;;;40.60;24.23;;;6.70;99.90;;;;;;5010334;28;20034;-74
2021/04/19 07:40:40;;;;;;;48.38;26.02;;;6.70;99.90;;;;;;5009750;28;20057;-73
2021/04/19 07:43:16;;;;;;;51.65;27.40;;;6.70;99.90;;;;;;5010472;28;20034;-73
2021/04/19 07:46:00;;;;;;;48.58;26.08;;;6.60;99.90;;;;;;4993330;28;20025;-73
2021/04/19 07:48:42;;;;;;;47.80;25.05;;;6.70;99.90;;;;;;5010516;28;20541;-73
2021/04/19 07:51:31;;;;;;;67.63;29.13;;;6.90;99.90;;;;;;5008755;28;20029;-74
2021/04/19 07:54:11;;;;;;;69.30;29.52;;;7.10;99.90;;;;;;5006270;28;20061;-72
2021/04/19 07:56:38;;;;;;;42.97;23.23;;;7.30;99.90;;;;;;5009398;28;20026;-73
2021/04/19 07:59:43;;;;;;;49.97;26.30;;;7.50;99.90;;;;;;5010996;28;20030;-71
2021/04/19 08:02:16;;;;;;;49.10;25.70;;;7.80;99.90;;;;;;4947287;29;20035;-71
2021/04/19 08:04:46;;;;;;;54.63;25.58;;;7.90;98.30;;;;;;4934416;29;20024;-72
2021/04/19 08:07:29;;;;;;;40.83;22.83;;;8.00;98.00;;;;;;4973324;28;20030;-75
2021/04/19 08:10:06;;;;;;;39.70;24.70;;;8.20;94.60;;;;;;5010982;28;20538;-74
2021/04/19 08:12:36;;;;;;;46.05;24.27;;;8.10;93.50;;;;;;5010052;28;20037;-73
2021/04/19 08:15:05;;;;;;;45.92;25.27;;;8.10;93.60;;;;;;5010426;28;20021;-74
2021/04/19 08:17:32;;;;;;;40.33;26.13;;;8.20;93.40;;;;;;5010177;28;20152;-73
2021/04/19 08:19:58;;;;;;;63.05;26.15;;;8.10;93.80;;;;;;5009423;28;20026;-73
2021/04/19 08:22:26;;;;;;;68.72;26.67;;;8.30;94.70;;;;;;5010076;28;20098;-74
2021/04/19 08:25:12;;;;;;;41.97;24.23;;;8.60;93.40;;;;;;5010775;28;20022;-73
2021/04/19 08:27:42;;;;;;;40.75;24.58;;;8.60;91.90;;;;;;4992718;28;20500;-73
2021/04/19 08:30:11;;;;;;;70.93;26.58;;;8.30;91.40;;;;;;5010472;28;20034;-74
2021/04/19 08:32:37;;;;;;;42.70;24.25;;;8.10;93.00;;;;;;5012665;28;20393;-73
2021/04/19 08:35:05;;;;;;;41.75;23.65;;;8.10;93.50;;;;;;5012313;28;20026;-74
2021/04/19 08:37:31;;;;;;;44.45;23.55;;;8.10;93.60;;;;;;5012687;28;20030;-73
2021/04/19 08:39:59;;;;;;;50.72;24.38;;;8.20;92.60;;;;;;5009146;28;20474;-73
2021/04/19 08:42:26;;;;;;;52.80;27.58;;;8.20;92.60;;;;;;4996202;28;20482;-74
2021/04/19 08:44:56;;;;;;;42.55;23.25;;;8.40;92.40;;;;;;5013429;28;20037;-74
2021/04/19 08:47:27;;;;;;;49.78;24.52;;;8.40;91.50;;;;;;5013917;28;20048;-74
2021/04/19 08:49:58;;;;;;;42.30;24.33;;;8.60;91.20;;;;;;5009785;28;20033;-73
2021/04/19 08:52:25;;;;;;;40.97;22.50;;;8.90;90.70;;;;;;5013212;28;20022;-74
2021/04/19 08:54:56;;;;;;;50.67;23.02;;;9.30;88.80;;;;;;5013446;28;20389;-74
2021/04/19 08:57:22;;;;;;;35.47;22.40;;;9.30;87.20;;;;;;5013429;28;20049;-74
2021/04/19 08:59:50;;;;;;;38.30;22.75;;;9.30;87.00;;;;;;5014694;28;20065;-74
2021/04/19 09:02:18;;;;;;;34.38;22.08;;;9.00;87.40;;;;;;5013313;28;20458;-73
2021/04/19 09:05:02;;;;;;;47.92;24.25;;;8.90;87.70;;;;;;5014110;28;20474;-73
2021/04/19 09:07:30;;;;;;;36.42;21.67;;;9.10;88.80;;;;;;5013088;28;20030;-75
2021/04/19 09:09:56;;;;;;;33.78;21.02;;;9.30;85.70;;;;;;5013615;28;20067;-73
2021/04/19 09:12:23;;;;;;;41.00;22.08;;;9.30;84.40;;;;;;5013606;28;20022;-74
2021/04/19 09:14:49;;;;;;;33.80;20.77;;;9.50;84.70;;;;;;5013018;28;20030;-73
2021/04/19 09:17:27;;;;;;;42.45;20.27;;;9.60;83.80;;;;;;5013287;28;20113;-74
2021/04/19 09:19:59;;;;;;;30.98;19.08;;;9.50;81.30;;;;;;5010028;28;20072;-74
2021/04/19 09:22:26;;;;;;;40.05;20.52;;;9.10;81.50;;;;;;5011841;28;20140;-73
2021/04/19 09:25:00;;;;;;;41.10;21.15;;;9.10;82.50;;;;;;5011465;28;20029;-73
2021/04/19 09:27:54;;;;;;;35.92;19.33;;;9.10;82.00;;;;;;5013244;28;20030;-73
2021/04/19 09:30:19;;;;;;;32.22;19.13;;;9.20;81.10;;;;;;5010389;28;20052;-73
2021/04/19 09:32:45;;;;;;;45.80;21.55;;;9.50;80.70;;;;;;5011880;28;20484;-73
2021/04/19 09:35:48;;;;;;;31.48;19.65;;;9.70;80.30;;;;;;5012839;28;20030;-72
2021/04/19 09:38:34;;;;;;;38.20;21.80;;;9.90;82.40;;;;;;5011868;28;20030;-73
2021/04/19 09:41:06;;;;;;;48.22;21.77;;;10.00;82.30;;;;;;5009619;28;20030;-73
2021/04/19 09:43:35;;;;;;;39.17;22.92;;;9.90;81.30;;;;;;5012525;28;20030;-73
2021/04/19 09:46:02;;;;;;;30.75;20.52;;;10.10;82.00;;;;;;5006194;28;20030;-73
2021/04/19 09:48:34;;;;;;;31.65;19.38;;;10.20;80.40;;;;;;5011913;28;20018;-73
2021/04/19 09:51:12;;;;;;;38.60;20.83;;;10.40;79.50;;;;;;5011482;28;20297;-73
2021/04/19 09:53:39;;;;;;;30.50;19.65;;;10.40;81.30;;;;;;5010850;28;20788;-73
2021/04/19 09:56:06;;;;;;;32.20;20.30;;;10.10;80.40;;;;;;5011147;28;20026;-72
2021/04/19 09:58:32;;;;;;;28.45;19.35;;;10.10;82.10;;;;;;5010694;28;20025;-73
2021/04/19 10:00:59;;;;;;;29.33;18.70;;;10.20;82.80;;;;;;5011013;28;20033;-73
2021/04/19 10:03:26;;;;;;;27.30;18.48;;;10.00;81.60;;;;;;5012479;28;20029;-73
2021/04/19 10:05:54;;;;;;;31.45;18.05;;;9.80;79.80;;;;;;5011744;28;20041;-73
2021/04/19 10:08:21;;;;;;;58.83;20.65;;;9.80;79.40;;;;;;5012229;28;20101;-73
2021/04/19 10:10:52;;;;;;;29.70;18.30;;;9.90;79.60;;;;;;5011890;28;20157;-73
2021/04/19 10:13:37;;;;;;;43.15;18.48;;;9.90;77.00;;;;;;4994661;28;20393;-73
2021/04/19 10:16:12;;;;;;;50.50;19.00;;;10.20;77.80;;;;;;5009686;28;20385;-73
2021/04/19 10:18:40;;;;;;;39.92;19.75;;;10.70;77.50;;;;;;4994229;28;20030;-73
2021/04/19 10:21:08;;;;;;;50.47;20.30;;;10.90;74.90;;;;;;5010435;28;20056;-73
2021/04/19 10:23:42;;;;;;;31.00;17.48;;;11.00;73.50;;;;;;5010978;28;20036;-73
2021/04/19 10:26:09;;;;;;;25.13;16.50;;;10.80;72.70;;;;;;5011633;28;20026;-72
2021/04/19 10:28:43;;;;;;;25.77;16.92;;;10.50;73.60;;;;;;5010561;28;20068;-73
2021/04/19 10:31:20;;;;;;;30.70;18.40;;;10.50;73.70;;;;;;5011939;28;20478;-73
2021/04/19 10:33:48;;;;;;;32.53;19.92;;;10.60;75.70;;;;;;5011449;28;20021;-72
2021/04/19 10:36:15;;;;;;;35.97;21.17;;;10.60;79.00;;;;;;5011785;28;20357;-72
2021/04/19 10:38:43;;;;;;;53.08;21.70;;;10.40;79.90;;;;;;5011200;28;20018;-72
2021/04/19 10:41:09;;;;;;;36.63;20.10;;;10.40;82.10;;;;;;5011819;28;20142;-72
2021/04/19 10:43:35;;;;;;;30.70;19.40;;;10.40;84.10;;;;;;5011435;28;20033;-72
2021/04/19 10:46:01;;;;;;;30.90;20.30;;;10.40;83.90;;;;;;5010418;28;20018;-72
2021/04/19 10:48:29;;;;;;;25.17;18.65;;;10.40;84.70;;;;;;4993883;28;20478;-73
2021/04/19 10:51:25;;;;;;;27.73;19.08;;;10.00;82.10;;;;;;5011213;28;20037;-73
2021/04/19 10:53:53;;;;;;;32.45;20.17;;;9.70;82.90;;;;;;5011160;28;20120;-73
2021/04/19 10:56:25;;;;;;;48.92;19.30;;;9.40;82.80;;;;;;5010923;28;20034;-73
2021/04/19 10:59:00;;;;;;;32.38;19.58;;;9.20;82.60;;;;;;5010442;28;20036;-73
2021/04/19 11:01:27;;;;;;;57.72;21.35;;;9.20;82.70;;;;;;5007369;28;20033;-72
2021/04/19 11:03:53;;;;;;;45.63;20.25;;;9.40;82.30;;;;;;5010207;28;20093;-73
2021/04/19 11:06:19;;;;;;;37.30;18.35;;;9.70;81.40;;;;;;5009705;28;20022;-73
2021/04/19 11:08:53;;;;;;;27.20;15.88;;;9.80;79.20;;;;;;5011542;28;20097;-73
2021/04/19 11:11:29;;;;;;;54.63;19.08;;;9.90;78.30;;;;;;5010815;28;20065;-73
2021/04/19 11:14:06;;;;;;;29.88;18.45;;;10.00;77.80;;;;;;5010588;28;20059;-73
2021/04/19 11:16:32;;;;;;;72.70;17.75;;;10.10;77.50;;;;;;5006993;28;20029;-73
2021/04/19 11:18:58;;;;;;;47.83;18.40;;;10.10;76.70;;;;;;5009643;28;20033;-73
2021/04/19 11:21:32;;;;;;;30.63;15.80;;;10.30;75.20;;;;;;5009443;28;20091;-73
2021/04/19 11:24:15;;;;;;;26.98;15.80;;;10.30;73.80;;;;;;4993276;28;20033;-73
2021/04/19 11:26:42;;;;;;;29.48;15.60;;;10.30;73.70;;;;;;5008561;28;20563;-73
2021/04/19 11:29:08;;;;;;;28.33;16.50;;;10.50;73.80;;;;;;5009639;28;20029;-72
2021/04/19 11:31:49;;;;;;;38.83;15.70;;;10.70;72.40;;;;;;5011253;28;20021;-73
2021/04/19 11:34:17;;;;;;;28.30;14.80;;;11.00;72.10;;;;;;5009567;28;20485;-73
2021/04/19 11:36:45;;;;;;;23.95;13.95;;;11.50;70.50;;;;;;5010105;28;20089;-73
2021/04/19 11:39:21;;;;;;;26.60;14.40;;;11.70;69.20;;;;;;5011406;28;20385;-73
2021/04/19 11:41:49;;;;;;;32.47;14.88;;;11.80;68.20;;;;;;4993503;28;20029;-73
2021/04/19 11:44:16;;;;;;;28.40;17.17;;;11.90;68.30;;;;;;5009981;28;20057;-74
2021/04/19 11:46:45;;;;;;;37.10;17.85;;;11.80;72.30;;;;;;5010978;28;20711;-74
2021/04/19 11:49:15;;;;;;;27.40;15.63;;;11.70;73.80;;;;;;5010138;28;20022;-74
2021/04/19 11:51:41;;;;;;;26.98;16.13;;;11.60;73.10;;;;;;5010949;28;20600;-74
2021/04/19 11:54:07;;;;;;;22.63;15.80;;;11.50;72.30;;;;;;5010139;28;20493;-73
2021/04/19 11:56:33;;;;;;;25.45;15.93;;;11.40;72.10;;;;;;5009567;28;20080;-73
2021/04/19 11:58:59;;;;;;;28.50;15.85;;;11.40;72.10;;;;;;5011137;28;20026;-74
2021/04/19 12:01:25;;;;;;;28.50;15.45;;;11.70;72.00;;;;;;5009728;28;20105;-73
2021/04/19 12:03:51;;;;;;;23.63;14.40;;;11.90;70.50;;;;;;4993104;28;20080;-73
2021/04/19 12:06:21;;;;;;;22.40;14.88;;;11.90;71.10;;;;;;5013957;28;20064;-74
2021/04/19 12:08:49;;;;;;;25.05;15.05;;;12.10;72.40;;;;;;5014475;28;20088;-73
2021/04/19 12:11:17;;;;;;;22.75;15.02;;;12.20;70.80;;;;;;5013671;28;20026;-73
2021/04/19 12:13:44;;;;;;;21.98;13.38;;;12.20;70.10;;;;;;5013388;28;20033;-73
2021/04/19 12:16:10;;;;;;;27.17;14.75;;;12.20;70.30;;;;;;5013269;28;20029;-74
2021/04/19 12:18:36;;;;;;;53.83;19.77;;;12.00;71.60;;;;;;5013457;28;20043;-73
2021/04/19 12:21:03;;;;;;;36.28;18.67;;;11.70;74.10;;;;;;5012778;28;20038;-73
2021/04/19 12:23:29;;;;;;;38.50;16.73;;;11.40;74.40;;;;;;5013030;28;20026;-75
2021/04/19 12:25:55;;;;;;;38.42;17.13;;;10.90;75.70;;;;;;5013836;28;20108;-74
2021/04/19 12:28:22;;;;;;;35.90;17.30;;;10.60;78.20;;;;;;5014300;28;20153;-74
2021/04/19 12:30:49;;;;;;;33.00;16.52;;;10.50;79.90;;;;;;5012540;28;20029;-74
2021/04/19 12:33:16;;;;;;;37.95;18.20;;;10.50;82.10;;;;;;4996837;28;20033;-74
2021/04/19 12:35:42;;;;;;;48.25;19.17;;;10.30;84.80;;;;;;5014753;28;20017;-74
2021/04/19 12:38:08;;;;;;;43.13;18.40;;;10.00;88.80;;;;;;5014354;28;20108;-74
2021/04/19 12:40:34;;;;;;;42.95;20.13;;;9.80;88.80;;;;;;4996715;28;20478;-74
2021/04/19 12:43:00;;;;;;;38.33;19.95;;;9.20;87.00;;;;;;5014220;28;20054;-74
2021/04/19 12:45:35;;;;;;;36.25;20.58;;;8.90;89.70;;;;;;5012795;28;20119;-74
2021/04/19 12:48:03;;;;;;;30.42;18.50;;;9.00;92.60;;;;;;4996459;28;20030;-74